createdAt,value
2023-04-04T00:00:47.438Z,6.18
2023-04-04T00:03:14.261Z,6.14
2023-04-04T00:05:41.580Z,6.12
2023-04-04T00:08:08.322Z,6.10
2023-04-04T00:10:35.275Z,6.07
2023-04-04T00:13:03.020Z,6.06
2023-04-04T00:15:29.874Z,6.03
2023-04-04T00:17:57.238Z,6.00
2023-04-04T00:20:24.082Z,5.97
2023-04-04T00:22:50.835Z,5.94
2023-04-04T00:25:17.538Z,5.92
2023-04-04T00:27:44.288Z,5.90
2023-04-04T00:30:12.331Z,5.87
2023-04-04T00:32:39.189Z,5.86
2023-04-04T00:35:06.584Z,5.82
2023-04-04T00:37:33.949Z,5.79
2023-04-04T00:40:00.752Z,5.75
2023-04-04T00:42:27.863Z,5.73
2023-04-04T00:44:54.689Z,5.72
2023-04-04T00:47:29.777Z,5.71
2023-04-04T00:49:56.473Z,5.68
2023-04-04T00:52:23.669Z,5.67
2023-04-04T00:54:51.214Z,5.67
2023-04-04T00:57:19.277Z,5.65
2023-04-04T00:59:46.449Z,5.63
2023-04-04T01:02:13.212Z,5.61
2023-04-04T01:04:40.187Z,5.60
2023-04-04T01:07:07.090Z,5.59
2023-04-04T01:09:34.121Z,5.56
2023-04-04T01:12:02.384Z,5.51
2023-04-04T01:14:29.173Z,5.48
2023-04-04T01:16:56.332Z,5.46
2023-04-04T01:19:32.250Z,5.42
2023-04-04T01:22:01.753Z,5.41
2023-04-04T01:24:35.858Z,5.38
2023-04-04T01:27:02.623Z,5.36
2023-04-04T01:29:29.328Z,5.34
2023-04-04T01:32:35.508Z,5.31
2023-04-04T01:35:38.549Z,5.25
2023-04-04T01:38:18.747Z,5.21
2023-04-04T01:40:49.890Z,5.19
2023-04-04T01:43:17.110Z,5.19
2023-04-04T01:45:44.850Z,5.18
2023-04-04T01:48:11.609Z,5.18
2023-04-04T01:50:38.528Z,5.16
2023-04-04T01:53:05.350Z,5.15
2023-04-04T01:55:32.075Z,5.13
2023-04-04T01:57:58.872Z,5.12
2023-04-04T02:00:25.730Z,5.11
2023-04-04T02:02:52.645Z,5.11
2023-04-04T02:05:19.383Z,5.10
2023-04-04T02:07:52.051Z,5.09
2023-04-04T02:10:18.862Z,5.07
2023-04-04T02:12:45.832Z,5.04
2023-04-04T02:15:12.876Z,5.03
2023-04-04T02:17:39.912Z,5.02
2023-04-04T02:20:08.423Z,4.99
2023-04-04T02:22:35.149Z,4.98
2023-04-04T02:25:02.822Z,4.96
2023-04-04T02:27:29.662Z,4.94
2023-04-04T02:29:56.410Z,4.92
2023-04-04T02:32:24.265Z,4.89
2023-04-04T02:34:51.551Z,4.86
2023-04-04T02:37:18.583Z,4.85
2023-04-04T02:39:45.587Z,4.83
2023-04-04T02:42:12.312Z,4.84
2023-04-04T02:44:39.070Z,4.80
2023-04-04T02:47:07.373Z,4.78
2023-04-04T02:49:34.264Z,4.76
2023-04-04T02:52:01.228Z,4.72
2023-04-04T02:54:27.951Z,4.69
2023-04-04T02:56:54.797Z,4.66
2023-04-04T02:59:21.632Z,4.64
2023-04-04T03:01:48.403Z,4.63
2023-04-04T03:04:15.381Z,4.61
2023-04-04T03:06:42.181Z,4.60
2023-04-04T03:09:09.218Z,4.59
2023-04-04T03:11:35.948Z,4.58
2023-04-04T03:14:03.077Z,4.55
2023-04-04T03:16:30.109Z,4.56
2023-04-04T03:18:57.189Z,4.56
2023-04-04T03:21:23.901Z,4.55
2023-04-04T03:23:51.188Z,4.55
2023-04-04T03:26:17.879Z,4.56
2023-04-04T03:28:44.655Z,4.54
2023-04-04T03:31:11.691Z,4.54
2023-04-04T03:33:38.585Z,4.53
2023-04-04T03:36:13.050Z,4.53
2023-04-04T03:38:40.858Z,4.52
2023-04-04T03:41:08.211Z,4.49
2023-04-04T03:43:35.202Z,4.49
2023-04-04T03:46:03.570Z,4.47
2023-04-04T03:48:30.820Z,4.48
2023-04-04T03:50:58.146Z,4.46
2023-04-04T03:53:26.239Z,4.45
2023-04-04T03:55:56.097Z,4.44
2023-04-04T03:58:23.995Z,4.44
2023-04-04T04:00:50.718Z,4.44
2023-04-04T04:03:17.827Z,4.44
2023-04-04T04:05:44.583Z,4.44
2023-04-04T04:08:11.637Z,4.45
2023-04-04T04:10:38.657Z,4.43
2023-04-04T04:13:05.580Z,4.45
2023-04-04T04:15:32.355Z,4.45
2023-04-04T04:17:59.128Z,4.44
2023-04-04T04:20:26.014Z,4.44
2023-04-04T04:22:54.221Z,4.43
2023-04-04T04:25:21.324Z,4.45
2023-04-04T04:27:48.033Z,4.45
2023-04-04T04:30:15.071Z,4.45
2023-04-04T04:32:41.854Z,4.42
2023-04-04T04:35:09.771Z,4.42
2023-04-04T04:37:36.553Z,4.42
2023-04-04T04:40:03.518Z,4.41
2023-04-04T04:42:30.470Z,4.41
2023-04-04T04:44:57.300Z,4.40
2023-04-04T04:47:24.152Z,4.40
2023-04-04T04:49:51.288Z,4.39
2023-04-04T04:52:19.169Z,4.39
2023-04-04T04:54:45.945Z,4.37
2023-04-04T04:57:12.787Z,4.37
2023-04-04T04:59:42.608Z,4.33
2023-04-04T05:02:09.463Z,4.31
2023-04-04T05:04:36.230Z,4.28
2023-04-04T05:07:03.108Z,4.28
2023-04-04T05:09:29.859Z,4.28
2023-04-04T05:11:57.186Z,4.28
2023-04-04T05:14:24.394Z,4.29
2023-04-04T05:16:51.181Z,4.28
2023-04-04T05:19:18.070Z,4.28
2023-04-04T05:21:44.855Z,4.28
2023-04-04T05:24:12.504Z,4.28
2023-04-04T05:26:39.351Z,4.28
2023-04-04T05:29:06.117Z,4.30
2023-04-04T05:31:33.514Z,4.35
2023-04-04T05:34:05.639Z,4.42
2023-04-04T05:36:32.364Z,4.51
2023-04-04T05:38:59.081Z,4.62
2023-04-04T05:41:25.818Z,4.76
2023-04-04T05:43:52.602Z,4.90
2023-04-04T05:46:19.381Z,5.05
2023-04-04T05:48:46.370Z,5.21
2023-04-04T05:51:13.106Z,5.38
2023-04-04T05:53:49.800Z,5.57
2023-04-04T05:56:16.977Z,5.76
2023-04-04T05:58:45.045Z,5.95
2023-04-04T06:01:12.516Z,6.15
2023-04-04T06:03:39.914Z,6.39
2023-04-04T06:06:08.573Z,6.60
2023-04-04T06:08:43.407Z,6.82
2023-04-04T06:11:22.873Z,7.07
2023-04-04T06:13:51.630Z,7.30
2023-04-04T06:16:20.332Z,7.54
2023-04-04T06:18:48.179Z,7.78
2023-04-04T06:21:15.582Z,8.00
2023-04-04T06:23:43.016Z,8.21
2023-04-04T06:26:10.438Z,8.43
2023-04-04T06:28:38.162Z,8.63
2023-04-04T06:31:09.004Z,8.87
2023-04-04T06:33:36.528Z,9.12
2023-04-04T06:36:04.156Z,9.39
2023-04-04T06:38:37.766Z,9.72
2023-04-04T06:41:08.467Z,10.01
2023-04-04T06:43:35.761Z,10.33
2023-04-04T06:46:03.284Z,10.72
2023-04-04T06:48:31.168Z,11.22
2023-04-04T06:50:58.608Z,11.79
2023-04-04T06:53:26.852Z,12.41
2023-04-04T06:55:58.938Z,12.95
2023-04-04T06:58:26.297Z,13.42
2023-04-04T07:00:53.730Z,13.92
2023-04-04T07:03:21.448Z,14.45
2023-04-04T07:05:48.772Z,14.96
2023-04-04T07:08:16.560Z,15.54
2023-04-04T07:10:44.312Z,16.09
2023-04-04T07:13:11.920Z,16.66
2023-04-04T07:15:39.633Z,17.20
2023-04-04T07:18:07.816Z,17.72
2023-04-04T07:20:35.342Z,18.22
2023-04-04T07:23:02.684Z,18.73
2023-04-04T07:25:35.910Z,19.22
2023-04-04T07:28:12.440Z,19.70
2023-04-04T07:30:48.870Z,20.10
2023-04-04T07:33:16.272Z,20.51
2023-04-04T07:35:43.722Z,20.96
2023-04-04T07:38:10.884Z,21.32
2023-04-04T07:40:38.686Z,21.70
2023-04-04T07:43:06.820Z,22.07
2023-04-04T07:45:36.578Z,22.37
2023-04-04T07:48:03.975Z,22.49
2023-04-04T07:50:31.701Z,22.55
2023-04-04T07:53:10.879Z,22.82
2023-04-04T07:55:37.995Z,23.00
2023-04-04T07:58:05.052Z,23.13
2023-04-04T08:00:32.229Z,23.24
2023-04-04T08:02:59.374Z,23.33
2023-04-04T08:05:26.609Z,23.30
2023-04-04T08:07:53.838Z,23.24
2023-04-04T08:10:21.963Z,23.03
2023-04-04T08:12:49.699Z,22.87
2023-04-04T08:15:17.059Z,22.69
2023-04-04T08:17:47.632Z,22.50
2023-04-04T08:20:15.701Z,22.28
2023-04-04T08:22:46.199Z,22.02
2023-04-04T08:25:13.378Z,21.81
2023-04-04T08:27:41.120Z,21.65
2023-04-04T08:30:09.234Z,21.50
2023-04-04T08:32:36.032Z,21.39
2023-04-04T08:35:03.484Z,21.44
2023-04-04T08:37:31.189Z,21.44
2023-04-04T08:39:58.612Z,21.39
2023-04-04T08:42:30.265Z,21.28
2023-04-04T08:45:02.199Z,21.18
2023-04-04T08:47:33.967Z,21.06
2023-04-04T08:50:06.183Z,21.04
2023-04-04T08:52:38.241Z,21.15
2023-04-04T08:55:15.691Z,21.34
2023-04-04T09:00:25.525Z,21.64
2023-04-04T09:03:09.963Z,21.67
2023-04-04T09:05:38.409Z,21.67
2023-04-04T09:08:08.768Z,21.67
2023-04-04T09:10:38.053Z,21.82
2023-04-04T09:13:15.556Z,21.99
2023-04-04T09:15:57.553Z,22.20
2023-04-04T09:18:24.678Z,22.20
2023-04-04T09:20:52.032Z,22.24
2023-04-04T09:23:21.831Z,22.24
2023-04-04T09:28:23.926Z,22.37
2023-04-04T09:30:53.038Z,22.52
2023-04-04T09:33:24.434Z,22.65
2023-04-04T09:36:07.849Z,22.63
2023-04-04T09:38:40.282Z,22.60
2023-04-04T09:41:09.960Z,22.65
2023-04-04T09:43:39.684Z,22.86
2023-04-04T09:46:08.360Z,23.11
2023-04-04T09:48:37.239Z,23.33
2023-04-04T09:51:12.647Z,23.39
2023-04-04T09:53:42.336Z,23.21
2023-04-04T09:56:11.839Z,23.00
2023-04-04T09:58:46.241Z,22.89
2023-04-04T10:01:18.939Z,22.77
2023-04-04T10:03:58.057Z,22.54
2023-04-04T10:06:27.039Z,22.43
2023-04-04T10:08:54.672Z,22.47
2023-04-04T10:11:34.513Z,22.32
2023-04-04T10:14:04.134Z,22.08
2023-04-04T10:16:38.571Z,22.01
2023-04-04T10:19:08.061Z,22.11
2023-04-04T10:21:36.225Z,22.11
2023-04-04T10:24:10.132Z,21.97
2023-04-04T10:26:38.004Z,21.82
2023-04-04T10:29:06.169Z,21.69
2023-04-04T10:31:41.558Z,21.55
2023-04-04T10:34:54.214Z,21.41
2023-04-04T10:37:35.024Z,21.35
2023-04-04T10:40:16.059Z,21.34
2023-04-04T10:42:47.543Z,21.32
2023-04-04T10:45:24.096Z,21.24
2023-04-04T10:47:55.924Z,21.11
2023-04-04T10:50:23.599Z,20.92
2023-04-04T10:52:51.910Z,20.80
2023-04-04T10:55:20.094Z,20.73
2023-04-04T10:57:52.762Z,20.68
2023-04-04T11:00:23.666Z,20.58
2023-04-04T11:02:58.181Z,20.40
2023-04-04T11:05:29.491Z,20.12
2023-04-04T11:08:08.731Z,19.91
2023-04-04T11:10:48.024Z,19.85
2023-04-04T11:13:27.447Z,19.83
2023-04-04T11:16:07.957Z,19.74
2023-04-04T11:18:46.172Z,19.62
2023-04-04T11:21:28.008Z,19.57
2023-04-04T11:23:54.815Z,19.58
2023-04-04T11:26:36.200Z,19.54
2023-04-04T11:29:22.781Z,19.44
2023-04-04T11:31:50.864Z,19.45
2023-04-04T11:34:32.827Z,19.32
2023-04-04T11:37:17.763Z,19.23
2023-04-04T11:39:50.786Z,19.24
2023-04-04T11:42:21.286Z,19.25
2023-04-04T11:45:00.056Z,19.12
2023-04-04T11:47:29.493Z,18.89
2023-04-04T11:49:57.087Z,18.75
2023-04-04T11:52:25.395Z,18.66
2023-04-04T11:54:52.745Z,18.52
2023-04-04T11:57:30.884Z,18.30
2023-04-04T12:00:00.955Z,18.08
2023-04-04T12:02:34.704Z,17.87
2023-04-04T12:05:05.272Z,17.62
2023-04-04T12:07:33.976Z,17.36
2023-04-04T12:10:03.509Z,17.05
2023-04-04T12:12:41.751Z,16.77
2023-04-04T12:15:17.531Z,16.49
2023-04-04T12:17:46.359Z,16.25
2023-04-04T12:20:17.842Z,16.03
2023-04-04T12:22:49.779Z,15.84
2023-04-04T12:25:20.986Z,15.77
2023-04-04T12:28:03.335Z,15.69
2023-04-04T12:30:33.289Z,15.56
2023-04-04T12:33:25.315Z,15.45
2023-04-04T12:36:30.252Z,15.26
2023-04-04T12:39:33.729Z,15.11
2023-04-04T12:42:04.218Z,14.94
2023-04-04T12:44:34.648Z,14.91
2023-04-04T12:47:08.372Z,14.82
2023-04-04T12:50:06.013Z,14.74
2023-04-04T12:53:30.608Z,14.71
2023-04-04T12:56:21.754Z,14.75
2023-04-04T13:17:11.135Z,14.83
2023-04-04T13:19:38.470Z,14.85
2023-04-04T13:22:09.561Z,14.90
2023-04-04T13:24:37.594Z,14.88
2023-04-04T13:27:06.494Z,14.84
2023-04-04T13:29:33.768Z,14.84
2023-04-04T13:32:02.095Z,14.88
2023-04-04T13:34:29.299Z,14.95
2023-04-04T13:36:56.878Z,15.02
2023-04-04T13:39:24.072Z,15.10
2023-04-04T13:41:51.465Z,15.13
2023-04-04T13:44:18.653Z,15.20
2023-04-04T13:46:46.052Z,15.30
2023-04-04T13:49:13.249Z,15.31
2023-04-04T13:51:40.523Z,15.28
2023-04-04T13:54:07.930Z,15.25
2023-04-04T13:56:35.237Z,15.26
2023-04-04T13:59:03.218Z,15.29
2023-04-04T14:01:31.010Z,15.33
2023-04-04T14:03:58.542Z,15.32
2023-04-04T14:06:26.538Z,15.28
2023-04-04T14:08:53.755Z,15.25
2023-04-04T14:11:22.109Z,15.20
2023-04-04T14:13:52.134Z,15.15
2023-04-04T14:16:19.490Z,15.05
2023-04-04T14:18:49.277Z,14.95
2023-04-04T14:21:16.940Z,14.91
2023-04-04T14:23:44.210Z,14.88
2023-04-04T14:26:11.246Z,14.84
2023-04-04T14:28:38.871Z,14.80
2023-04-04T14:31:07.213Z,14.78
2023-04-04T14:33:34.815Z,14.71
2023-04-04T14:36:02.014Z,14.64
2023-04-04T14:38:30.935Z,14.57
2023-04-04T14:41:01.084Z,14.52
2023-04-04T14:43:28.289Z,14.52
2023-04-04T14:45:55.701Z,14.57
2023-04-04T14:48:22.918Z,14.61
2023-04-04T14:50:50.320Z,14.62
2023-04-04T14:53:18.341Z,14.71
2023-04-04T14:55:45.853Z,14.73
2023-04-04T14:58:13.371Z,14.74
2023-04-04T15:00:40.889Z,14.77
2023-04-04T15:03:08.584Z,14.76
2023-04-04T15:05:35.828Z,14.77
2023-04-04T15:08:03.442Z,14.77
2023-04-04T15:10:32.846Z,14.75
2023-04-04T15:13:00.281Z,14.76
2023-04-04T15:15:29.253Z,14.80
2023-04-04T15:17:56.631Z,14.78
2023-04-04T15:20:24.058Z,14.74
2023-04-04T15:22:51.396Z,14.69
2023-04-04T15:25:18.461Z,14.61
2023-04-04T15:27:45.602Z,14.58
2023-04-04T15:30:15.082Z,14.50
2023-04-04T15:32:42.560Z,14.48
2023-04-04T15:35:19.204Z,14.49
2023-04-04T15:37:49.150Z,14.52
2023-04-04T15:40:17.932Z,14.55
2023-04-04T15:42:46.741Z,14.61
2023-04-04T15:45:15.698Z,14.65
2023-04-04T15:47:43.739Z,14.68
2023-04-04T15:50:11.969Z,14.72
2023-04-04T15:52:39.279Z,14.73
2023-04-04T15:55:13.347Z,14.75
2023-04-04T15:57:44.541Z,14.77
2023-04-04T16:00:14.349Z,14.81
2023-04-04T16:02:41.793Z,14.78
2023-04-04T16:05:09.663Z,14.77
2023-04-04T16:07:37.158Z,14.79
2023-04-04T16:10:05.250Z,14.81
2023-04-04T16:12:32.831Z,14.76
2023-04-04T16:15:00.421Z,14.74
2023-04-04T16:17:27.841Z,14.73
2023-04-04T16:19:55.454Z,14.72
2023-04-04T16:22:22.932Z,14.68
2023-04-04T16:24:50.213Z,14.61
2023-04-04T16:27:17.674Z,14.56
2023-04-04T16:29:45.231Z,14.54
2023-04-04T16:32:12.516Z,14.50
2023-04-04T16:34:39.776Z,14.48
2023-04-04T16:37:07.225Z,14.48
2023-04-04T16:39:34.592Z,14.45
2023-04-04T16:42:02.415Z,14.41
2023-04-04T16:44:29.819Z,14.36
2023-04-04T16:47:00.048Z,14.30
2023-04-04T16:49:27.592Z,14.25
2023-04-04T16:51:54.709Z,14.22
2023-04-04T16:54:21.960Z,14.20
2023-04-04T16:56:49.318Z,14.18
2023-04-04T16:59:17.381Z,14.16
2023-04-04T17:01:44.723Z,14.12
2023-04-04T17:04:12.217Z,14.07
2023-04-04T17:06:39.590Z,14.03
2023-04-04T17:09:07.994Z,13.98
2023-04-04T17:11:58.260Z,13.93
2023-04-04T17:14:25.993Z,13.84
2023-04-04T17:16:54.227Z,13.78
2023-04-04T17:19:21.672Z,13.73
2023-04-04T17:21:52.120Z,13.66
2023-04-04T17:24:25.517Z,13.58
2023-04-04T17:26:54.320Z,13.53
2023-04-04T17:29:26.900Z,13.47
2023-04-04T17:31:56.156Z,13.41
2023-04-04T17:34:24.786Z,13.35
2023-04-04T17:36:53.592Z,13.29
2023-04-04T17:39:21.793Z,13.22
2023-04-04T17:41:49.810Z,13.18
2023-04-04T17:44:20.163Z,13.11
2023-04-04T17:46:48.071Z,13.06
2023-04-04T17:49:20.248Z,13.00
2023-04-04T17:51:49.306Z,12.96
2023-04-04T17:54:17.950Z,12.91
2023-04-04T17:56:47.326Z,12.87
2023-04-04T17:59:16.744Z,12.82
2023-04-04T18:01:44.926Z,12.77
2023-04-04T18:04:12.529Z,12.68
2023-04-04T18:06:41.662Z,12.62
2023-04-04T18:09:10.341Z,12.58
2023-04-04T18:11:39.048Z,12.52
2023-04-04T18:14:09.569Z,12.48
2023-04-04T18:16:40.396Z,12.43
2023-04-04T18:19:09.929Z,12.38
2023-04-04T18:21:38.526Z,12.32
2023-04-04T18:24:08.276Z,12.27
2023-04-04T18:26:36.238Z,12.23
2023-04-04T18:29:03.584Z,12.19
2023-04-04T18:31:31.122Z,12.12
2023-04-04T18:33:58.719Z,12.10
2023-04-04T18:36:27.097Z,12.05
2023-04-04T18:38:54.699Z,12.02
2023-04-04T18:41:22.124Z,11.99
2023-04-04T18:43:49.699Z,11.95
2023-04-04T18:46:19.093Z,11.91
2023-04-04T18:48:49.376Z,11.89
2023-04-04T18:51:16.216Z,11.84
2023-04-04T18:53:42.980Z,11.80
2023-04-04T18:56:09.788Z,11.76
2023-04-04T18:58:36.990Z,11.68
2023-04-04T19:01:04.105Z,11.59
2023-04-04T19:03:41.884Z,11.49
2023-04-04T19:06:14.701Z,11.40
2023-04-04T19:08:44.298Z,11.33
2023-04-04T19:11:11.621Z,11.26
2023-04-04T19:13:38.766Z,11.20
2023-04-04T19:16:05.578Z,11.15
2023-04-04T19:18:32.328Z,11.09
2023-04-04T19:20:59.154Z,11.06
2023-04-04T19:23:27.680Z,11.03
2023-04-04T19:25:55.780Z,11.01
2023-04-04T19:28:22.643Z,10.98
2023-04-04T19:30:49.934Z,10.95
2023-04-04T19:33:24.046Z,10.93
2023-04-04T19:36:02.306Z,10.90
2023-04-04T19:38:34.514Z,10.86
2023-04-04T19:41:18.841Z,10.82
2023-04-04T19:43:47.589Z,10.78
2023-04-04T19:46:23.758Z,10.75
2023-04-04T19:48:55.719Z,10.70
2023-04-04T19:51:22.417Z,10.69
2023-04-04T19:53:55.293Z,10.65
2023-04-04T19:56:24.880Z,10.64
2023-04-04T19:59:01.769Z,10.61
2023-04-04T20:01:31.569Z,10.56
2023-04-04T20:04:08.709Z,10.54
2023-04-04T20:06:37.243Z,10.50
2023-04-04T20:09:34.651Z,10.49
2023-04-04T20:12:01.636Z,10.46
2023-04-04T20:14:28.918Z,10.43
2023-04-04T20:16:55.868Z,10.43
2023-04-04T20:19:28.251Z,10.42
2023-04-04T20:21:55.586Z,10.39
2023-04-04T20:24:23.149Z,10.37
2023-04-04T20:27:02.841Z,10.35
2023-04-04T20:29:35.401Z,10.31
2023-04-04T20:32:11.072Z,10.27
2023-04-04T20:34:42.826Z,10.25
2023-04-04T20:37:19.641Z,10.22
2023-04-04T20:39:52.937Z,10.19
2023-04-04T20:42:25.969Z,10.12
2023-04-04T20:44:53.683Z,10.09
2023-04-04T20:47:50.763Z,10.06
2023-04-04T20:50:17.778Z,10.01
2023-04-04T20:52:56.555Z,9.98
2023-04-04T20:55:26.335Z,9.93
2023-04-04T20:57:57.040Z,9.91
2023-04-04T21:00:29.961Z,9.87
2023-04-04T21:03:00.502Z,9.81
2023-04-04T21:05:36.566Z,9.77
2023-04-04T21:08:29.490Z,9.70
2023-04-04T21:10:57.489Z,9.64
2023-04-04T21:13:36.766Z,9.60
2023-04-04T21:16:10.794Z,9.54
2023-04-04T21:18:40.138Z,9.46
2023-04-04T21:21:16.528Z,9.39
2023-04-04T21:23:54.449Z,9.30
2023-04-04T21:26:36.803Z,9.21
2023-04-04T21:29:24.392Z,9.12
2023-04-04T21:31:54.476Z,9.05
2023-04-04T21:34:27.035Z,9.00
2023-04-04T21:36:59.915Z,8.97
2023-04-04T21:39:29.867Z,8.93
2023-04-04T21:42:06.939Z,8.91
2023-04-04T21:44:35.712Z,8.86
2023-04-04T21:47:02.521Z,8.85
2023-04-04T21:49:29.237Z,8.83
2023-04-04T21:51:55.945Z,8.82
2023-04-04T21:54:23.260Z,8.82
2023-04-04T21:56:50.001Z,8.80
2023-04-04T21:59:16.800Z,8.79
2023-04-04T22:01:43.655Z,8.77
2023-04-04T22:04:10.619Z,8.75
2023-04-04T22:06:37.433Z,8.74
2023-04-04T22:09:05.222Z,8.74
2023-04-04T22:11:34.333Z,8.72
2023-04-04T22:14:04.637Z,8.70
2023-04-04T22:16:32.232Z,8.73
2023-04-04T22:19:01.005Z,8.71
2023-04-04T22:21:28.123Z,8.72
2023-04-04T22:24:02.694Z,8.74
2023-04-04T22:26:31.793Z,8.72
2023-04-04T22:29:00.423Z,8.71
2023-04-04T22:31:28.504Z,8.71
2023-04-04T22:33:55.802Z,8.70
2023-04-04T22:36:24.356Z,8.67
2023-04-04T22:38:57.144Z,8.64
2023-04-04T22:41:29.185Z,8.62
2023-04-04T22:43:57.520Z,8.61
2023-04-04T22:46:25.849Z,8.58
2023-04-04T22:49:04.297Z,8.56
2023-04-04T22:51:34.874Z,8.52
2023-04-04T22:54:02.951Z,8.49
2023-04-04T22:56:29.776Z,8.47
2023-04-04T22:58:56.658Z,8.44
2023-04-04T23:01:23.474Z,8.40
2023-04-04T23:03:50.245Z,8.36
2023-04-04T23:06:20.059Z,8.33
2023-04-04T23:08:46.951Z,8.28
2023-04-04T23:11:13.972Z,8.23
2023-04-04T23:13:42.297Z,8.19
2023-04-04T23:16:09.062Z,8.14
2023-04-04T23:18:36.098Z,8.10
2023-04-04T23:21:03.639Z,8.04
2023-04-04T23:23:30.470Z,8.03
2023-04-04T23:25:58.250Z,7.99
2023-04-04T23:28:29.304Z,7.94
2023-04-04T23:30:56.089Z,7.91
2023-04-04T23:33:22.827Z,7.85
2023-04-04T23:35:49.653Z,7.80
2023-04-04T23:38:16.536Z,7.77
2023-04-04T23:40:43.312Z,7.70
2023-04-04T23:43:10.041Z,7.68
2023-04-04T23:45:40.690Z,7.63
2023-04-04T23:48:07.629Z,7.59
2023-04-04T23:50:34.493Z,7.56
2023-04-04T23:53:01.259Z,7.53
2023-04-04T23:55:27.964Z,7.50
2023-04-04T23:58:00.705Z,7.49
